Dickerson, Maryland
Current Conditions -  °F | °C
As of 9:15 AM on Sunday 25 Jan 2015 (Local Time) from KJYO Reporting Station
Overcast Overcast  
Wind Chill: 31°   Ceiling: 4400
Heat Index: 37°   Visibility: 10mi
Dew Point: 32°   Wind: 8mph
Humidity: 81%   Direction: 230°SW
Pressure: 29.84"   Gusts: NA
Location:  39.22°N, 77.42°W
Report Text: KJYO 251415Z AUTO 23007KT 10SM OVC044 03/00 A2984 RMK AO2
Loading
Personal Weather Stations






























Interactive Weather Map New forecast layout! Learn more

10-Day Weather Forecast

Advertisements
Track Severe Weather on mobile